Weather observations for the past three days for
MCPHERSON
Imperial (Metric)
Date Time (cdt) Wind (mph) Vis. (mi.) Weather Sky Cond. Temperature (ºF) Relative Humidity Wind Chill (°F) Heat Index (°F) Pressure Precipitation (in)
Air Dwpt 6 hour altimeter (in) sea level (mb) 1 hr 3 hr 6 hr
Max. Min.
06 20:55 NW 5 10.00 Overcast SCT070 OVC120 51.4 34.3 52% 30.09 0.0
06 20:35 N 7 10.00 Overcast SCT060 OVC120 52.9 33.8 48% 30.08 0.0
06 20:15 N 6 10.00 Overcast OVC060 55.4 33.4 44% 30.08 0.0
06 19:55 N 7 10.00 Overcast BKN070 OVC120 56.1 33.8 43% 30.07 0.0
06 19:35 N 7 10.00 Mostly Cloudy SCT070 BKN120 55.9 33.1 42% 30.07 0.0
06 19:15 N 8 10.00 Mostly Cloudy SCT070 BKN120 56.8 32.4 40% 30.07 0.0
06 18:55 N 9 10.00 Partly Cloudy SCT070 56.8 32.2 61.2 53.8 39% 30.07 0.0
06 18:35 N 8 10.00 Partly Cloudy SCT070 56.7 32.4 40% 30.08 0.0
06 17:55 N 9 10.00 Mostly Cloudy SCT060 BKN120 60.3 32.5 35% 30.07 0.0
06 17:35 NE 6 10.00 Mostly Cloudy BKN060 BKN110 59.5 32.9 37% 30.06 0.0
06 17:15 NW 10 10.00 Partly Cloudy SCT060 58.8 32.5 37% 30.07 0.0
06 16:35 N 10 10.00 Mostly Cloudy SCT060 BKN070 57.9 32.5 38% 30.08 0.0
06 16:15 N 13 10.00 Partly Cloudy SCT060 SCT065 58.8 33.3 38% 30.08 0.0
06 15:55 NW 6 10.00 Mostly Cloudy BKN060 56.5 34.5 44% 30.09 0.0
06 15:35 N 8 10.00 Mostly Cloudy BKN060 57 34.7 43% 30.1 0.0
06 15:15 N 8 10.00 Mostly Cloudy SCT048 BKN060 56.1 34.9 45% 30.1 0.0
06 14:55 NE 8 10.00 Overcast SCT047 OVC050 57.4 35.4 44% 30.1 0.0
06 14:35 N 3 10.00 Mostly Cloudy SCT047 BKN050 55.6 35.2 47% 30.11 0.0
06 14:15 NE 6 10.00 Partly Cloudy SCT043 58.1 35.4 43% 30.11 0.0
06 13:55 N 10 10.00 Mostly Cloudy BKN043 BKN048 55.8 36.5 49% 30.11 0.0
06 13:35 N 7 10.00 Mostly Cloudy BKN043 BKN049 55.8 36.1 48% 30.12 0.0
06 13:15 E 6 10.00 Mostly Cloudy BKN046 56.3 34.5 44% 30.12 0.0
06 12:55 NE 6 10.00 Overcast SCT040 OVC047 53.6 34.2 56.3 44.6 48% 30.13 0.0
06 12:35 NE 8 G 23 10.00 Mostly Cloudy SCT032 BKN040 BKN047 53.6 35.8 51% 30.13 0.0
06 12:15 NE 3 10.00 Overcast SCT027 BKN032 OVC047 52.3 36.3 55% 30.13 0.0
06 11:55 N 13 10.00 Mostly Cloudy SCT027 SCT036 BKN095 53.8 40.3 60% 30.13 0.0
06 11:35 N 7 10.00 Mostly Cloudy SCT022 SCT070 BKN095 52.3 39.9 63% 30.13 0.0
06 11:15 NW 8 10.00 Overcast BKN022 BKN065 OVC070 50.4 42.1 73% 30.14 0.0
06 10:55 N 8 10.00 Overcast SCT019 BKN023 OVC065 48.9 41 74% 46 30.14 0.0
06 10:35 N 8 10.00 Overcast SCT019 BKN070 OVC095 48.6 41.2 76% 45 30.14 0.0
06 10:15 N 5 10.00 Overcast OVC095 47.8 39.9 74% 46 30.14 0.0
06 09:55 N 7 10.00 Mostly Cloudy BKN060 BKN095 48.2 40.8 76% 46 30.13 0.0
06 09:35 N 6 10.00 Overcast BKN060 BKN080 OVC090 47.3 40.5 77% 45 30.12 0.0
06 09:15 N 7 10.00 Overcast SCT070 OVC090 46.9 41.2 80% 44 30.12 0.0
06 08:55 N 6 10.00 Overcast OVC070 46.6 39.9 78% 44 30.12 0.0
06 08:35 N 5 10.00 Overcast OVC070 46.4 41.9 84% 45 30.12 0.0
06 08:15 N 3 10.00 Overcast OVC070 46 41.2 83% 30.11 0.0
06 07:55 N 8 10.00 Overcast OVC070 45.9 42.3 87% 42 30.11 0.0
06 07:35 N 8 10.00 Overcast SCT070 OVC090 45.3 43 92% 42 30.1 0.0
06 06:55 N 7 10.00 Overcast OVC090 44.6 43.3 46.4 44.2 95% 41 30.07 0.0 0.01
06 06:35 N 6 10.00 Mostly Cloudy BKN090 44.2 43 95% 41 30.05 0.0
06 06:15 N 5 10.00 Partly Cloudy SCT090 44.4 43.2 95% 42 30.04 0.0
06 05:55 N 7 10.00 Overcast SCT070 OVC090 44.2 43 95% 41 30.03 0.0
06 05:35 N 6 10.00 Overcast SCT060 OVC070 44.4 43 95% 42 30.04 0.0
06 05:15 N 6 10.00 Light Drizzle SCT034 BKN060 OVC070 44.6 43 94% 42 30.03 0.0
06 04:55 N 6 10.00 Light Rain SCT034 BKN045 OVC075 44.6 42.8 93% 42 30.04 0.0
06 04:35 N 7 10.00 Light Drizzle BKN043 OVC050 44.6 42.1 91% 41 30.04 0.0
06 04:15 N 8 10.00 Light Drizzle BKN055 BKN070 OVC100 44.8 42.6 92% 41 30.04 0.0
06 03:55 N 7 10.00 Light Drizzle BKN050 SCT065 OVC100 44.8 42.6 92% 41 30.03 0.0 0.01 0.01
06 03:35 NW 7 10.00 Light Drizzle BKN060 BKN065 OVC080 45.1 43 92% 42 30.05 0.0 0.01
06 03:15 W 6 10.00 Overcast SCT060 OVC080 45.1 43 92% 43 30.05 0.0
06 02:55 NW 6 10.00 Overcast OVC080 45.1 43 92% 43 30.02 0.0
06 02:35 N 5 10.00 Overcast OVC080 45.3 42.8 91% 43 30.01 0.0
06 02:15 NW 5 10.00 Overcast OVC080 45.3 42.8 91% 43 30.02 0.0
06 01:55 N 5 10.00 Overcast OVC075 45.9 41.5 85% 44 30.02 0.0
06 01:35 N 3 10.00 Light Rain OVC075 46.2 40.5 80% 30.02 0.0
06 01:15 NE 5 10.00 Overcast OVC075 46.4 40.8 81% 45 30.02 0.0
06 00:55 NE 3 10.00 Overcast OVC075 46 41.5 51.4 45.9 84% 30 0.0
06 00:35 NE 6 10.00 Light Drizzle OVC075 46 41.4 84% 44 29.99 0.0
06 00:15 NE 7 10.00 Light Rain SCT042 BKN060 OVC075 46 41.2 83% 43 29.99 0.0
05 23:55 NE 5 10.00 Light Rain BKN044 OVC060 46.2 40.8 82% 45 30 0.0
05 23:35 NE 7 10.00 Overcast OVC070 46.2 40.6 81% 43 29.99 0.0
05 23:15 N 8 10.00 Overcast OVC070 46.2 40.8 82% 43 30 0.0
05 22:55 N 10 10.00 Light Rain OVC080 45.9 40.8 83% 41 30 0.0
05 22:35 N 12 10.00 Overcast OVC080 46.2 40.5 80% 41 29.98 0.0
05 22:15 N 13 10.00 Overcast OVC070 46.9 39.9 77% 42 29.99 0.0
05 21:55 N 16 10.00 Overcast OVC060 47.8 39.2 72% 42 29.99 0.0
05 21:35 N 13 10.00 Overcast SCT045 BKN050 OVC070 49.3 37.6 64% 45 29.99 0.0
05 21:15 N 14 10.00 Overcast BKN045 BKN050 OVC070 50 37.2 62% 45 29.97 0.0
05 20:55 NW 9 10.00 Overcast SCT045 OVC070 49.1 41.9 76% 46 29.97 0.0
05 20:35 N 7 10.00 Light Drizzle OVC070 49.6 41.2 73% 47 29.95 0.0
05 20:15 N 9 10.00 Light Rain OVC070 50.5 39.2 65% 29.92 0.0
05 19:55 N 8 10.00 Overcast OVC070 51.3 37.8 60% 29.92 0.0
05 19:35 N 10 10.00 Overcast OVC070 51.4 37.4 59% 29.92 0.0
05 19:15 N 13 10.00 Overcast SCT050 OVC070 50.9 38.7 63% 29.91 0.0
05 18:55 N 14 10.00 Overcast OVC070 51.6 37.6 56.8 51.3 59% 29.91 0.0
05 18:35 N 15 10.00 Overcast OVC070 52.5 37.4 57% 29.9 0.0
05 18:15 N 17 10.00 Overcast SCT037 OVC070 53.2 37.2 55% 29.9 0.0
05 17:55 N 15 10.00 Overcast BKN037 OVC070 53.6 37.2 54% 29.9 0.0
05 17:35 NE 15 G 22 10.00 Mostly Cloudy SCT037 BKN070 54.1 36.9 52% 29.9 0.0
05 17:15 N 13 G 20 10.00 Overcast SCT033 OVC070 54.5 35.8 49% 29.9 0.0
05 16:55 NE 13 G 20 10.00 Overcast SCT033 OVC070 53.6 37.9 56% 29.9 0.0
05 16:35 NE 13 G 24 10.00 Overcast OVC070 53.8 35.8 51% 29.91 0.0
05 16:15 NE 18 G 28 10.00 Overcast BKN070 OVC085 54.5 35.2 48% 29.91 0.0
05 15:55 NE 14 G 26 10.00 Overcast SCT040 OVC070 55.4 36 48% 29.91 0.0
05 15:35 NE 14 G 26 10.00 Mostly Cloudy SCT042 BKN070 55.2 36.3 49% 29.92 0.0
05 15:15 NE 18 G 28 10.00 Partly Cloudy SCT042 SCT070 SCT120 56.3 35.1 45% 29.91 0.0
05 14:55 NE 16 G 28 10.00 Mostly Cloudy SCT042 BKN070 BKN090 55.9 34.9 45% 29.91 0.0
05 14:35 NE 18 G 23 10.00 Mostly Cloudy SCT034 BKN070 56.1 35.6 46% 29.91 0.0
05 14:15 NE 15 G 21 10.00 Overcast SCT029 OVC034 55.6 38.5 53% 29.91 0.0
05 13:55 NE 15 G 21 10.00 Overcast OVC029 54 39.4 58% 29.92 0.0
05 13:35 E 16 G 23 10.00 Overcast BKN027 OVC033 53.4 40.8 63% 29.92 0.0
05 13:15 NE 15 G 20 10.00 Mostly Cloudy BKN025 BKN030 53.6 41.4 63% 29.92 0.0
05 12:55 NE 14 G 22 10.00 Partly Cloudy SCT023 SCT030 SCT060 51.6 41.2 52.2 46.9 68% 29.92 0.0
05 12:35 NE 16 10.00 Mostly Cloudy SCT022 SCT027 BKN070 50.9 41.9 71% 29.92 0.0
05 11:55 NE 16 10.00 Overcast BKN070 OVC080 48 42.3 81% 42 29.92 0.0
05 11:35 NE 16 10.00 Light Rain SCT055 OVC070 47.1 41.7 82% 41 29.93 0.0
05 11:15 NE 10 10.00 Overcast SCT055 OVC070 48.2 41 76% 44 29.94 0.0
05 10:55 NE 18 G 25 10.00 Overcast OVC070 49.8 37.6 63% 44 29.92 0.0
05 10:35 NE 16 G 22 10.00 Overcast OVC070 50.7 37.6 61% 29.91 0.0
05 10:15 NE 16 G 22 10.00 Overcast OVC070 51.4 37.4 59% 29.9 0.0
05 09:55 NE 18 G 26 10.00 Overcast OVC070 51.6 36.9 57% 29.89 0.0
05 09:35 NE 18 G 24 10.00 Overcast OVC070 51.6 36.9 57% 29.89 0.0
05 08:50 NE 16 G 22 10.00 Overcast OVC070 50.9 36.9 59% 29.87 0.0
05 08:35 NE 13 G 21 10.00 Overcast OVC070 51.1 36.9 58% 29.87 0.0
05 08:15 NE 12 G 22 10.00 Overcast OVC070 51.1 36.1 57% 29.87 0.0
05 07:35 NE 14 G 22 10.00 Overcast OVC070 51.3 34.7 53% 29.84 0.0
05 07:15 NE 17 G 23 10.00 Overcast OVC070 51.4 34.2 52% 29.82 0.0
05 06:55 NE 15 G 21 10.00 Overcast OVC070 52.3 33.6 57.7 52.3 49% 29.82 0.0
05 06:15 NE 14 G 20 10.00 Overcast OVC060 53.2 33.8 48% 29.81 0.0
05 05:55 NE 15 G 21 10.00 Overcast OVC060 53.4 34 48% 29.79 0.0
05 05:35 NE 15 10.00 Overcast OVC060 53.6 35.1 50% 29.77 0.0
05 05:15 NE 18 G 26 10.00 Overcast OVC060 53.8 35.4 50% 29.75 0.0
05 04:55 NE 16 G 22 10.00 Overcast OVC050 54 35.8 50% 29.75 0.0
05 04:35 NE 16 G 22 10.00 Overcast OVC050 54.1 36 50% 29.76 0.0
05 04:15 NE 15 G 24 10.00 Overcast OVC050 54.3 36.1 50% 29.75 0.0
05 03:55 NE 16 G 25 10.00 Overcast OVC050 54.7 36.3 50% 29.74 0.0
05 03:35 NE 16 G 25 10.00 Overcast OVC050 54.9 36.9 51% 29.74 0.0
05 03:15 NE 16 G 23 10.00 Overcast OVC050 55.4 37.2 51% 29.74 0.0
05 02:55 N 20 G 29 10.00 Overcast OVC050 55.8 38.5 52% 29.73 0.0
05 02:35 NE 17 G 29 10.00 Overcast BKN060 OVC070 56.3 38.1 51% 29.71 0.0
05 02:15 NE 20 G 31 10.00 Overcast BKN080 OVC090 56.7 38.1 50% 29.7 0.0
05 01:55 NE 20 G 28 10.00 Mostly Cloudy BKN080 BKN090 56.8 42.6 59% 29.7 0.0
05 01:35 N 18 G 23 10.00 Mostly Cloudy BKN085 57.4 45.1 64% 29.7 0.0
05 01:15 NE 16 10.00 Partly Cloudy SCT085 57.6 45.5 64% 29.68 0.0
05 00:55 NE 16 G 25 10.00 Fair CLR 57.4 46.2 82 56.7 67% 29.67 0.0 0.01
05 00:35 NE 16 G 26 10.00 Fair CLR 56.8 47.7 72% 29.66 0.0
05 00:15 NE 18 G 28 10.00 Fair CLR 56.7 48.9 75% 29.65 0.0
04 23:55 NE 15 G 25 10.00 Fair CLR 57.2 49.8 77% 29.65 0.0
04 23:35 NE 18 G 28 10.00 Fair CLR 58.6 50.2 74% 29.64 0.0
04 23:15 NE 23 G 33 10.00 Mostly Cloudy and Breezy SCT075 BKN100 60.4 50.4 70% 29.65 0.0
04 22:55 NE 25 G 41 10.00 Mostly Cloudy and Breezy SCT050 SCT065 BKN100 64.6 48.2 56% 29.67 0.0 0.01
04 22:35 E 14 G 20 10.00 Light Rain SCT050 SCT065 OVC090 71.4 55.9 58% 29.63 0.0 0.01
04 22:15 SW 9 10.00 Light Rain BKN090 BKN120 73.6 56.5 55% 29.64 0.0
04 21:55 SE 5 10.00 Partly Cloudy SCT110 74.5 53.8 49% 29.61 0.0
04 21:35 SE 5 10.00 Fair CLR 75 53.2 47% 78 29.6 0.0
04 21:15 S 8 10.00 Partly Cloudy SCT120 75.7 53.2 46% 78 29.59 0.0
04 20:55 S 6 10.00 Fair CLR 75.7 53.1 45% 78 29.59 0.0
04 20:35 S 8 10.00 Fair CLR 77 53.1 43% 78 29.57 0.0
04 20:15 S 8 10.00 Fair CLR 78.1 53.1 42% 79 29.56 0.0
04 19:55 S 8 10.00 Fair CLR 79 52.7 40% 79 29.56 0.0
04 19:35 S 9 10.00 Fair CLR 80.1 52.7 39% 80 29.56 0.0
04 19:15 SE 5 10.00 Partly Cloudy SCT090 81.7 43.5 26% 80 29.56 0.0
04 18:55 NE 9 10.00 Fair CLR 82.2 44.2 87.8 80.6 26% 80 29.56 0.0
04 18:35 NE 7 10.00 Partly Cloudy SCT110 83.3 43.9 25% 81 29.56 0.0
04 18:15 E 9 10.00 Fair CLR 83.5 42.8 24% 81 29.56 0.0
04 17:55 SE 6 10.00 Fair CLR 83.5 42.1 23% 81 29.56 0.0
04 17:35 SE 12 10.00 Fair CLR 84 41.4 22% 81 29.57 0.0
04 16:30 S 14 G 18 10.00 Fair CLR 84.4 43.3 24% 82 29.58 0.0
04 16:15 SE 7 10.00 Fair CLR 85.6 41.7 21% 83 29.58 0.0
04 15:55 S 7 7.00 Fair CLR 86.5 41.5 21% 83 29.58 0.0
04 15:35 S 7 10.00 Fair CLR 86.9 39.7 19% 84 29.6 0.0
04 15:15 SE 6 10.00 Fair CLR 85.3 40.5 21% 82 29.61 0.0
04 14:55 SE 9 10.00 Fair CLR 85.8 40.3 20% 83 29.61 0.0
04 14:35 E 12 10.00 Fair CLR 85.5 39.4 20% 82 29.62 0.0
04 14:15 NE 9 10.00 Fair CLR 84.2 39.4 20% 81 29.62 0.0
04 13:55 NE 7 10.00 Fair CLR 84 39.6 21% 81 29.63 0.0
04 13:35 E 10 10.00 Fair CLR 82.9 42.1 24% 81 29.64 0.0
04 13:15 Calm 10.00 Fair CLR 81.9 41.7 24% 80 29.65 0.0
04 12:55 NE 6 10.00 Fair CLR 80.8 39.9 83.8 57 23% 79 29.65 0.0
04 12:35 E 9 10.00 Fair CLR 82 40.1 23% 80 29.65 0.0
04 12:15 E 3 7.00 Fair CLR 81 42.1 25% 79 29.65 0.0
04 11:55 Calm 10.00 Fair CLR 79.7 42.1 26% 79 29.66 0.0
04 11:35 NW 6 10.00 Fair CLR 78.3 43 29% 78 29.65 0.0
04 11:15 W 3 10.00 Fair CLR 77 45.5 33% 78 29.65 0.0
04 10:55 W 7 10.00 Fair CLR 75.6 46 35% 77 29.65 0.0
04 10:35 SW 9 10.00 Fair CLR 73.9 45.5 36% 29.65 0.0
04 10:15 SW 8 10.00 Fair CLR 72.9 45.9 38% 29.65 0.0
04 09:55 SW 9 10.00 Fair CLR 71.4 46.2 41% 29.65 0.0
04 09:35 SW 13 10.00 Fair CLR 70.2 46.4 43% 29.65 0.0
04 09:15 SW 13 10.00 Fair CLR 68.5 47.1 46% 29.65 0.0
04 08:55 S 10 10.00 Fair CLR 63.9 46.2 53% 29.65 0.0
04 08:35 S 13 10.00 Fair CLR 65.8 46.8 50% 29.65 0.0
04 08:15 S 12 10.00 Fair CLR 63.7 46.8 54% 29.65 0.0
04 07:55 S 9 10.00 Fair CLR 61.2 46.4 59% 29.65 0.0
04 07:35 S 7 10.00 Fair CLR 58.6 45.5 62% 29.65 0.0
04 07:15 S 9 10.00 Fair CLR 57.2 44.6 63% 29.64 0.0
04 06:55 S 12 10.00 Fair CLR 57.7 44.2 64.9 56.7 61% 29.64 0.0
04 06:35 S 10 10.00 Fair CLR 57.4 43.9 61% 29.64 0.0
04 06:15 S 14 G 24 10.00 Fair CLR 58.3 43.9 59% 29.63 0.0
04 05:55 S 13 10.00 Fair CLR 57.6 43.7 60% 29.64 0.0
04 05:35 S 13 10.00 Fair CLR 57 43.5 61% 29.65 0.0
04 05:15 S 12 10.00 Fair CLR 57 43.2 60% 29.66 0.0
04 04:55 S 9 10.00 Fair CLR 59 43.2 56% 29.66 0.0
04 04:35 S 10 10.00 Fair CLR 61 43.2 52% 29.66 0.0
04 04:15 S 10 10.00 Fair CLR 61.9 42.8 50% 29.66 0.0
04 03:55 S 12 10.00 Fair CLR 62.4 42.8 49% 29.66 0.0
04 03:35 S 13 10.00 Fair CLR 63.5 42.6 47% 29.66 0.0
04 03:15 S 15 10.00 Fair CLR 64 42.4 46% 29.67 0.0
04 02:55 S 14 10.00 Fair CLR 64.2 42.3 45% 29.68 0.0
04 02:35 S 12 10.00 Fair CLR 63 41.9 46% 29.68 0.0
04 02:15 S 12 10.00 Fair CLR 62.6 41.5 46% 29.69 0.0
04 01:55 S 13 10.00 Fair CLR 62.8 41.2 45% 29.69 0.0
04 01:35 S 13 10.00 Fair CLR 63.1 40.6 44% 29.7 0.0
04 01:15 S 13 10.00 Fair CLR 63.7 39.9 42% 29.71 0.0
04 00:55 S 12 10.00 Fair CLR 63 39.4 83.3 62.8 42% 29.71 0.0
04 00:35 S 10 10.00 Fair CLR 64 38.8 40% 29.72 0.0
04 00:15 S 12 10.00 Fair CLR 64.4 38.7 39% 29.72 0.0
03 23:55 S 10 10.00 Fair CLR 64.4 38.7 39% 29.73 0.0
03 23:35 SE 8 10.00 Fair CLR 66.7 38.5 36% 29.73 0.0
03 23:15 SE 8 10.00 Fair CLR 68.2 38.7 34% 29.74 0.0
03 22:55 SE 3 10.00 Fair CLR 67.6 38.3 34% 29.75 0.0
03 22:35 S 8 10.00 Fair CLR 67.1 37.8 34% 29.74 0.0
03 22:15 S 10 10.00 Fair CLR 68.9 37.2 31% 29.73 0.0
03 21:55 S 10 10.00 Fair CLR 69.8 36.7 30% 29.73 0.0
03 21:35 S 12 10.00 Fair CLR 70 35.6 28% 29.73 0.0
03 21:15 S 12 10.00 Fair CLR 69.8 34.5 27% 29.73 0.0
Date Time (cdt) Wind (mph) Vis. (mi.) Weather Sky Cond. Air Dwpt Max. Min. Relative Humidity Wind Chill (°F) Heat Index (°F) altimeter (in) sea level (mb) 1 hr 3 hr 6 hr
6 hour
Temperature (ºF) Pressure Precipitation (in)